Time;durP1;ratioP1;P1;durP2;ratioP2;P2;SDS_P1;SDS_P2;PMS_P1;PMS_P2;Temp;Humidity;BMP_temperature;BMP_pressure;BME280_temperature;BME280_humidity;BME280_pressure;Samples;Min_cycle;Max_cycle;Signal;HPM_P1;HPM_P2
2022/02/22 00:01:10;;;;;;;10.32;6.95;;;2.50;99.90;;;;;;4991101;28;20027;-79
2022/02/22 00:03:36;;;;;;;5.55;5.05;;;2.50;99.90;;;;;;5021713;28;20475;-78
2022/02/22 00:06:05;;;;;;;6.57;4.95;;;2.40;99.90;;;;;;5014960;28;20026;-77
2022/02/22 00:08:32;;;;;;;9.05;6.72;;;2.40;99.90;;;;;;5018887;28;20022;-77
2022/02/22 00:10:58;;;;;;;8.40;6.88;;;2.40;99.90;;;;;;5013000;28;20014;-77
2022/02/22 00:13:25;;;;;;;7.68;6.35;;;2.40;99.90;;;;;;5011439;28;20553;-77
2022/02/22 00:15:52;;;;;;;6.82;6.13;;;2.40;99.90;;;;;;5016321;28;20021;-76
2022/02/22 00:18:18;;;;;;;6.50;5.80;;;2.50;99.90;;;;;;5020088;28;20064;-78
2022/02/22 00:20:45;;;;;;;6.88;6.15;;;2.50;99.90;;;;;;5020474;28;20048;-76
2022/02/22 00:23:11;;;;;;;6.78;6.07;;;2.50;99.90;;;;;;5019028;28;20022;-78
2022/02/22 00:25:37;;;;;;;6.70;6.05;;;2.60;99.90;;;;;;5012506;28;20045;-79
2022/02/22 00:28:04;;;;;;;5.85;5.10;;;2.60;99.90;;;;;;5015352;28;20065;-79
2022/02/22 00:30:31;;;;;;;6.28;4.47;;;2.60;99.90;;;;;;5015086;28;20018;-78
2022/02/22 00:32:57;;;;;;;7.30;5.30;;;2.60;99.90;;;;;;5015309;28;20390;-79
2022/02/22 00:35:23;;;;;;;6.45;5.50;;;2.60;99.90;;;;;;5013949;28;20129;-78
2022/02/22 00:37:50;;;;;;;6.72;5.75;;;2.60;99.90;;;;;;5015593;28;20108;-78
2022/02/22 00:40:16;;;;;;;7.97;7.18;;;2.70;99.90;;;;;;5014925;28;20105;-79
2022/02/22 00:42:42;;;;;;;5.70;5.20;;;2.70;99.90;;;;;;5015021;28;20053;-78
2022/02/22 00:45:10;;;;;;;6.68;5.63;;;2.80;99.90;;;;;;5015011;28;20022;-79
2022/02/22 00:47:36;;;;;;;5.63;5.00;;;2.80;99.90;;;;;;5014852;28;20022;-78
2022/02/22 00:50:02;;;;;;;6.22;5.07;;;2.80;99.90;;;;;;5022615;28;20090;-77
2022/02/22 00:52:28;;;;;;;7.88;5.75;;;2.80;99.90;;;;;;5017900;28;20084;-78
2022/02/22 00:54:55;;;;;;;9.02;6.03;;;2.80;99.90;;;;;;5013952;28;20030;-78
2022/02/22 00:57:21;;;;;;;6.13;5.18;;;2.80;99.90;;;;;;5014755;28;20034;-80
2022/02/22 00:59:47;;;;;;;6.03;5.40;;;2.80;99.90;;;;;;5014562;28;20076;-78
2022/02/22 01:02:13;;;;;;;5.45;4.93;;;2.80;99.90;;;;;;5014433;28;20030;-80
2022/02/22 01:04:39;;;;;;;5.93;5.15;;;2.80;99.90;;;;;;5014443;28;20026;-79
2022/02/22 01:07:05;;;;;;;7.22;5.55;;;2.90;99.90;;;;;;5014357;28;20022;-78
2022/02/22 01:09:31;;;;;;;5.82;4.80;;;2.90;99.90;;;;;;5014377;28;20118;-79
2022/02/22 01:11:57;;;;;;;5.32;4.82;;;2.90;99.90;;;;;;5015273;28;20518;-77
2022/02/22 01:14:23;;;;;;;5.25;4.57;;;3.00;99.90;;;;;;5016999;28;20069;-78
2022/02/22 01:16:49;;;;;;;7.07;4.13;;;3.00;99.90;;;;;;5014541;28;20062;-79
2022/02/22 01:19:15;;;;;;;5.60;5.10;;;3.00;99.90;;;;;;5014201;28;20109;-79
2022/02/22 01:21:41;;;;;;;5.60;4.45;;;3.00;99.90;;;;;;5014370;28;20022;-79
2022/02/22 01:24:08;;;;;;;5.30;3.50;;;3.00;99.90;;;;;;4997312;28;20479;-80
2022/02/22 01:26:34;;;;;;;5.25;4.75;;;3.00;99.90;;;;;;4993347;28;20027;-79
2022/02/22 01:29:01;;;;;;;4.43;4.03;;;3.00;99.90;;;;;;4994462;28;20026;-79
2022/02/22 01:31:27;;;;;;;4.70;4.07;;;3.00;99.90;;;;;;4994395;28;20014;-78
2022/02/22 01:33:57;;;;;;;4.88;4.40;;;3.00;99.90;;;;;;4994146;28;20030;-78
2022/02/22 01:36:24;;;;;;;5.03;4.00;;;2.90;99.90;;;;;;5009630;28;20026;-80
2022/02/22 01:38:51;;;;;;;4.30;3.80;;;2.90;99.90;;;;;;5014805;28;20025;-78
2022/02/22 01:41:21;;;;;;;4.30;3.30;;;2.90;99.90;;;;;;5014295;28;20018;-79
2022/02/22 01:43:47;;;;;;;4.25;3.85;;;2.90;99.90;;;;;;5013799;28;20022;-79
2022/02/22 01:46:14;;;;;;;4.13;3.60;;;2.90;99.90;;;;;;5013917;28;20073;-80
2022/02/22 01:48:40;;;;;;;4.05;3.65;;;2.90;99.90;;;;;;4995968;28;20022;-79
2022/02/22 01:51:07;;;;;;;3.60;3.30;;;2.90;99.90;;;;;;5013531;28;20028;-80
2022/02/22 01:53:33;;;;;;;4.18;3.42;;;2.90;99.90;;;;;;5012908;28;20052;-80
2022/02/22 01:56:00;;;;;;;4.65;4.20;;;2.90;99.90;;;;;;5013444;28;20022;-79
2022/02/22 01:58:27;;;;;;;4.88;4.07;;;2.90;99.90;;;;;;5013314;28;20121;-80
2022/02/22 02:00:53;;;;;;;4.50;4.10;;;2.90;99.90;;;;;;5011345;28;20034;-79
2022/02/22 02:03:19;;;;;;;4.70;3.67;;;2.90;99.90;;;;;;5013502;28;20084;-80
2022/02/22 02:05:46;;;;;;;4.90;4.40;;;2.90;99.90;;;;;;5013295;28;20022;-79
2022/02/22 02:08:12;;;;;;;4.63;4.13;;;2.90;99.90;;;;;;5013509;28;20054;-80
2022/02/22 02:10:38;;;;;;;4.60;4.10;;;2.90;99.90;;;;;;5026266;28;20390;-79
2022/02/22 02:13:04;;;;;;;5.10;4.38;;;2.90;99.90;;;;;;5028072;28;20093;-79
2022/02/22 02:15:30;;;;;;;4.45;4.05;;;2.90;99.90;;;;;;5014684;28;20383;-80
2022/02/22 02:17:56;;;;;;;6.50;4.30;;;3.00;99.90;;;;;;5012438;28;20129;-80
2022/02/22 02:20:23;;;;;;;4.30;3.90;;;3.00;99.90;;;;;;5013056;28;20030;-80
2022/02/22 02:22:49;;;;;;;4.40;3.65;;;3.00;99.90;;;;;;4996076;28;20577;-80
2022/02/22 02:25:15;;;;;;;4.53;3.78;;;3.00;99.90;;;;;;4994314;28;20022;-79
2022/02/22 02:27:41;;;;;;;4.43;3.80;;;3.00;99.90;;;;;;5006143;28;20050;-79
2022/02/22 02:30:09;;;;;;;6.07;4.10;;;3.00;99.90;;;;;;5009645;28;20379;-78
2022/02/22 02:32:36;;;;;;;4.43;4.03;;;3.00;99.90;;;;;;4996141;28;20029;-80
2022/02/22 02:35:03;;;;;;;4.50;3.30;;;3.00;99.90;;;;;;5004624;28;20042;-78
2022/02/22 02:37:29;;;;;;;4.78;4.28;;;3.00;99.90;;;;;;5012438;28;20042;-79
2022/02/22 02:39:55;;;;;;;5.95;4.38;;;3.00;99.90;;;;;;5012973;28;20049;-79
2022/02/22 02:42:21;;;;;;;4.50;4.10;;;3.00;99.90;;;;;;5010985;28;20113;-79
2022/02/22 02:44:48;;;;;;;4.80;3.70;;;3.00;99.90;;;;;;5012778;28;20022;-78
2022/02/22 02:47:14;;;;;;;;;;;3.00;99.90;;;;;;5013138;28;20398;-78
2022/02/22 02:49:41;;;;;;;4.57;3.92;;;3.00;99.90;;;;;;5012630;28;19910;-78
2022/02/22 02:52:08;;;;;;;5.72;4.10;;;3.00;99.90;;;;;;5011693;28;20033;-78
2022/02/22 02:54:34;;;;;;;4.33;3.90;;;3.10;99.90;;;;;;5012498;28;20041;-79
2022/02/22 02:57:01;;;;;;;4.22;3.67;;;3.10;99.90;;;;;;5012396;28;20034;-78
2022/02/22 02:59:26;;;;;;;4.68;4.25;;;3.10;99.90;;;;;;5012736;28;20197;-79
2022/02/22 03:01:52;;;;;;;5.03;4.53;;;3.00;99.90;;;;;;5012909;28;20793;-78
2022/02/22 03:04:19;;;;;;;5.68;4.88;;;3.10;99.90;;;;;;5015368;28;20478;-78
2022/02/22 03:06:46;;;;;;;4.03;3.45;;;3.10;99.90;;;;;;5015482;28;20018;-78
2022/02/22 03:09:12;;;;;;;14.23;4.68;;;3.10;99.90;;;;;;5012944;28;20029;-78
2022/02/22 03:11:38;;;;;;;3.78;3.33;;;3.10;99.90;;;;;;5012869;28;20034;-79
2022/02/22 03:14:05;;;;;;;6.13;4.57;;;3.10;99.90;;;;;;5012448;28;20025;-78
2022/02/22 03:16:32;;;;;;;4.95;3.88;;;3.00;99.90;;;;;;5012352;28;20026;-78
2022/02/22 03:18:57;;;;;;;4.32;3.92;;;3.00;99.90;;;;;;5012282;28;20048;-78
2022/02/22 03:21:23;;;;;;;4.90;4.40;;;3.00;99.90;;;;;;4996880;28;20026;-78
2022/02/22 03:23:49;;;;;;;4.50;4.10;;;3.00;99.90;;;;;;4992651;28;20026;-78
2022/02/22 03:26:15;;;;;;;7.63;4.95;;;3.00;99.90;;;;;;5002749;28;20110;-78
2022/02/22 03:28:41;;;;;;;5.35;4.47;;;3.00;99.90;;;;;;5012274;28;20061;-79
2022/02/22 03:31:07;;;;;;;8.48;4.65;;;3.00;99.90;;;;;;5012302;28;20434;-78
2022/02/22 03:33:33;;;;;;;7.30;6.05;;;3.00;99.90;;;;;;5013239;28;20026;-78
2022/02/22 03:36:01;;;;;;;6.05;5.35;;;3.10;99.90;;;;;;5013331;28;20132;-78
2022/02/22 03:38:27;;;;;;;;;;;3.10;99.90;;;;;;5012852;28;20117;-76
2022/02/22 03:40:53;;;;;;;8.82;6.28;;;3.10;99.90;;;;;;5012150;28;19909;-78
2022/02/22 03:43:18;;;;;;;7.53;6.53;;;3.10;99.90;;;;;;5011428;28;20030;-78
2022/02/22 03:45:44;;;;;;;7.13;5.15;;;3.10;99.90;;;;;;5011593;28;20030;-79
2022/02/22 03:48:10;;;;;;;9.32;6.28;;;3.10;99.90;;;;;;5012409;28;20474;-78
2022/02/22 03:50:36;;;;;;;7.13;6.35;;;3.10;99.90;;;;;;5014156;28;20126;-78
2022/02/22 03:53:02;;;;;;;11.35;8.18;;;3.10;99.90;;;;;;5014260;28;20079;-79
2022/02/22 03:55:28;;;;;;;11.27;8.40;;;3.10;99.90;;;;;;5015692;28;20037;-79
2022/02/22 03:57:54;;;;;;;10.35;6.85;;;3.20;99.90;;;;;;5014613;28;20045;-80
2022/02/22 04:00:23;;;;;;;9.85;7.18;;;3.20;99.90;;;;;;5015783;28;20386;-78
2022/02/22 04:02:49;;;;;;;12.98;8.73;;;3.20;99.90;;;;;;5016960;28;20022;-78
2022/02/22 04:05:16;;;;;;;12.93;9.45;;;3.30;99.90;;;;;;5026182;28;20024;-78
2022/02/22 04:07:42;;;;;;;;;;;3.20;99.90;;;;;;5016535;28;20029;-78
2022/02/22 04:10:09;;;;;;;11.93;8.50;;;3.30;99.90;;;;;;5015832;28;20395;-78
2022/02/22 04:12:36;;;;;;;11.48;7.53;;;3.20;99.90;;;;;;5014685;28;20065;-78
2022/02/22 04:15:03;;;;;;;12.13;7.93;;;3.20;99.90;;;;;;5013308;28;20034;-78
2022/02/22 04:17:29;;;;;;;14.93;9.65;;;3.20;99.90;;;;;;5015576;28;20394;-79
2022/02/22 04:19:55;;;;;;;11.23;9.10;;;3.20;99.90;;;;;;5001081;28;20031;-78
2022/02/22 04:22:21;;;;;;;13.70;9.20;;;3.20;99.90;;;;;;4995578;28;20031;-81
2022/02/22 04:24:47;;;;;;;12.13;8.95;;;3.20;99.90;;;;;;4995808;28;20065;-78
2022/02/22 04:27:14;;;;;;;14.52;8.88;;;3.20;99.90;;;;;;4995632;28;20643;-77
2022/02/22 04:29:40;;;;;;;17.67;10.65;;;3.20;99.90;;;;;;4998618;28;20103;-80
2022/02/22 04:32:06;;;;;;;11.32;8.75;;;3.20;99.90;;;;;;5015258;28;20030;-78
2022/02/22 04:34:32;;;;;;;13.63;10.67;;;3.20;99.90;;;;;;5015128;28;20096;-79
2022/02/22 04:36:58;;;;;;;10.50;7.80;;;3.30;99.90;;;;;;5019564;28;20037;-78
2022/02/22 04:39:24;;;;;;;9.90;7.38;;;3.30;99.90;;;;;;5019470;28;20037;-80
2022/02/22 04:41:50;;;;;;;10.32;8.30;;;3.30;99.90;;;;;;5015151;28;20030;-81
2022/02/22 04:44:19;;;;;;;10.45;6.88;;;3.30;99.90;;;;;;5015111;28;20058;-80
2022/02/22 04:46:46;;;;;;;9.80;7.20;;;3.30;99.90;;;;;;5014754;28;20057;-79
2022/02/22 04:49:12;;;;;;;9.00;7.57;;;3.30;99.90;;;;;;5013802;28;20026;-81
2022/02/22 04:51:40;;;;;;;7.38;5.95;;;3.30;99.90;;;;;;5014621;28;20021;-79
2022/02/22 04:54:06;;;;;;;7.70;6.13;;;3.20;99.90;;;;;;5013107;28;20022;-78
2022/02/22 04:56:32;;;;;;;10.77;7.35;;;3.20;99.90;;;;;;5014291;28;20040;-81
2022/02/22 04:58:59;;;;;;;8.43;6.57;;;3.20;99.90;;;;;;5014521;28;20029;-79
2022/02/22 05:01:25;;;;;;;10.68;7.13;;;3.20;99.90;;;;;;5014045;28;20026;-80
2022/02/22 05:03:50;;;;;;;9.57;6.32;;;3.20;99.90;;;;;;5014342;28;20072;-81
2022/02/22 05:06:16;;;;;;;7.30;6.00;;;3.20;99.90;;;;;;5013323;28;20422;-81
2022/02/22 05:08:42;;;;;;;8.88;6.47;;;3.20;99.90;;;;;;5012752;28;20033;-80
2022/02/22 05:11:08;;;;;;;7.03;5.47;;;3.20;99.90;;;;;;5013476;28;20038;-79
2022/02/22 05:13:35;;;;;;;8.23;5.68;;;3.20;99.90;;;;;;5014089;28;20026;-80
2022/02/22 05:16:01;;;;;;;8.93;5.63;;;3.20;99.90;;;;;;5014004;28;20060;-80
2022/02/22 05:18:28;;;;;;;9.27;5.60;;;3.20;99.90;;;;;;5001511;28;20030;-82
2022/02/22 05:20:56;;;;;;;7.25;5.40;;;3.20;99.90;;;;;;4992977;28;20058;-81
2022/02/22 05:23:31;;;;;;;6.72;4.70;;;3.20;99.90;;;;;;4994595;28;20027;-81
2022/02/22 05:25:57;;;;;;;7.47;4.57;;;3.20;99.90;;;;;;4997200;28;20448;-81
2022/02/22 05:28:23;;;;;;;7.93;5.30;;;3.20;99.90;;;;;;5014859;28;20049;-80
2022/02/22 05:30:52;;;;;;;7.30;6.15;;;3.10;99.90;;;;;;5014368;28;20026;-82
2022/02/22 05:33:19;;;;;;;7.78;5.30;;;3.10;99.90;;;;;;5014002;28;20113;-79
2022/02/22 05:35:46;;;;;;;6.32;4.70;;;3.20;99.90;;;;;;5013812;28;20100;-81
2022/02/22 05:38:12;;;;;;;6.27;4.97;;;3.20;99.90;;;;;;5013742;28;20034;-80
2022/02/22 05:40:38;;;;;;;6.15;4.50;;;3.20;99.90;;;;;;5013739;28;20691;-79
2022/02/22 05:43:04;;;;;;;5.28;3.90;;;3.30;99.90;;;;;;5012863;28;20478;-80
2022/02/22 05:45:30;;;;;;;5.80;4.75;;;3.20;99.90;;;;;;5013534;28;20026;-79
2022/02/22 05:47:55;;;;;;;5.88;3.53;;;3.20;99.90;;;;;;5013918;28;20033;-81
2022/02/22 05:50:21;;;;;;;4.38;3.33;;;3.20;99.90;;;;;;5013824;28;20372;-79
2022/02/22 05:52:47;;;;;;;8.07;4.00;;;3.20;99.90;;;;;;5012440;28;20084;-80
2022/02/22 05:55:13;;;;;;;5.05;3.55;;;3.20;99.90;;;;;;5015057;28;20021;-80
2022/02/22 05:57:39;;;;;;;4.57;3.70;;;3.20;99.90;;;;;;5013172;28;20034;-81
2022/02/22 06:00:07;;;;;;;6.88;3.88;;;3.10;99.90;;;;;;5008435;28;20030;-81
2022/02/22 06:02:33;;;;;;;6.38;3.45;;;3.20;99.90;;;;;;4994006;28;20356;-79
2022/02/22 06:04:58;;;;;;;6.18;3.38;;;3.20;99.90;;;;;;4993940;28;20030;-80
2022/02/22 06:07:24;;;;;;;4.38;3.85;;;3.20;99.90;;;;;;4994148;28;20379;-79
2022/02/22 06:09:50;;;;;;;5.07;3.38;;;3.10;99.90;;;;;;4993545;28;20471;-80
2022/02/22 06:12:16;;;;;;;5.88;4.68;;;3.10;99.90;;;;;;4993148;28;20495;-82
2022/02/22 06:14:41;;;;;;;6.00;3.47;;;3.10;99.90;;;;;;4996121;28;20101;-81
2022/02/22 06:17:07;;;;;;;4.93;3.35;;;3.10;99.90;;;;;;4999879;28;20459;-80
2022/02/22 06:19:33;;;;;;;5.80;3.90;;;3.10;99.90;;;;;;4993290;28;20050;-79
2022/02/22 06:21:59;;;;;;;4.03;3.17;;;3.10;99.90;;;;;;4993473;28;20026;-82
2022/02/22 06:24:24;;;;;;;5.13;3.53;;;3.10;99.90;;;;;;4993322;28;20060;-80
2022/02/22 06:26:50;;;;;;;4.47;2.92;;;3.00;99.90;;;;;;4993930;28;20033;-79
2022/02/22 06:29:16;;;;;;;5.80;3.53;;;3.10;99.90;;;;;;4994119;28;20026;-80
2022/02/22 06:31:42;;;;;;;4.38;3.33;;;3.10;99.90;;;;;;4993447;28;20038;-79
2022/02/22 06:34:08;;;;;;;2.63;2.40;;;3.10;99.90;;;;;;5011618;28;20430;-79
2022/02/22 06:36:34;;;;;;;4.28;3.30;;;3.10;99.90;;;;;;5012864;28;20033;-79
2022/02/22 06:39:00;;;;;;;5.20;2.58;;;3.00;99.90;;;;;;5011018;28;20051;-80
2022/02/22 06:41:27;;;;;;;5.97;3.65;;;3.10;99.90;;;;;;5012746;28;20025;-78
2022/02/22 06:43:53;;;;;;;5.15;3.40;;;3.10;99.90;;;;;;5014002;28;20041;-79
2022/02/22 06:46:19;;;;;;;3.80;2.95;;;3.20;99.90;;;;;;5014382;28;20030;-76
2022/02/22 06:48:45;;;;;;;5.18;2.85;;;3.20;99.90;;;;;;5013445;28;20026;-79
2022/02/22 06:51:10;;;;;;;3.67;2.55;;;3.20;99.90;;;;;;5012070;28;20048;-81
2022/02/22 06:53:36;;;;;;;5.18;2.88;;;3.20;99.90;;;;;;5012673;28;20471;-79
2022/02/22 06:56:03;;;;;;;2.88;2.58;;;3.10;99.90;;;;;;5011209;28;20069;-77
2022/02/22 06:58:29;;;;;;;3.43;2.57;;;3.10;99.90;;;;;;5012208;28;20064;-78
2022/02/22 07:00:56;;;;;;;4.47;2.65;;;3.10;99.90;;;;;;5012392;28;20108;-80
2022/02/22 07:03:22;;;;;;;6.88;4.05;;;3.20;99.90;;;;;;5011158;28;20030;-79
2022/02/22 07:05:48;;;;;;;6.93;4.57;;;3.30;99.90;;;;;;5012198;28;20026;-75
2022/02/22 07:08:14;;;;;;;7.15;3.90;;;3.30;99.90;;;;;;5012245;28;20037;-79
2022/02/22 07:10:40;;;;;;;8.93;3.42;;;3.30;99.90;;;;;;5014056;28;20030;-79
2022/02/22 07:13:07;;;;;;;3.75;2.90;;;3.30;99.90;;;;;;5011399;28;20030;-77
2022/02/22 07:15:33;;;;;;;5.37;3.00;;;3.40;99.90;;;;;;5000857;28;20118;-78
2022/02/22 07:18:04;;;;;;;3.92;2.97;;;3.60;99.90;;;;;;4992745;28;20048;-78
2022/02/22 07:20:30;;;;;;;4.82;2.95;;;3.60;99.90;;;;;;4992432;28;20026;-77
2022/02/22 07:22:56;;;;;;;5.07;2.70;;;3.70;99.90;;;;;;4992421;28;20030;-77
2022/02/22 07:25:24;;;;;;;5.63;3.00;;;3.80;99.90;;;;;;4994030;28;20102;-78
2022/02/22 07:27:51;;;;;;;4.30;2.92;;;3.80;99.90;;;;;;4996452;28;20037;-77
2022/02/22 07:30:19;;;;;;;5.63;3.53;;;3.80;99.90;;;;;;5014904;28;20033;-77
2022/02/22 07:32:45;;;;;;;6.25;3.75;;;3.90;99.90;;;;;;5016543;28;20044;-79
2022/02/22 07:35:12;;;;;;;4.78;2.35;;;3.90;99.90;;;;;;5017003;28;20046;-79
2022/02/22 07:37:39;;;;;;;4.45;3.50;;;4.00;99.90;;;;;;5017537;28;20121;-78
2022/02/22 07:40:06;;;;;;;4.60;2.93;;;3.90;99.90;;;;;;5016267;28;20076;-77
2022/02/22 07:42:32;;;;;;;5.97;3.20;;;3.80;99.90;;;;;;5016414;28;20022;-79
2022/02/22 07:44:58;;;;;;;4.47;3.17;;;3.60;99.90;;;;;;5015131;28;20038;-77
2022/02/22 07:47:24;;;;;;;4.85;2.65;;;3.50;99.90;;;;;;5016425;28;20026;-77
2022/02/22 07:49:50;;;;;;;5.07;2.47;;;3.50;99.90;;;;;;5017017;28;20072;-77
2022/02/22 07:52:15;;;;;;;4.72;3.13;;;3.40;99.90;;;;;;5015875;28;20068;-78
2022/02/22 07:54:41;;;;;;;7.40;3.88;;;3.40;99.90;;;;;;5015215;28;20505;-78
2022/02/22 07:57:07;;;;;;;6.18;3.33;;;3.40;99.90;;;;;;5015630;28;20038;-77
2022/02/22 07:59:33;;;;;;;3.38;2.72;;;3.40;99.90;;;;;;5015680;28;20018;-77
2022/02/22 08:01:59;;;;;;;5.88;2.88;;;3.40;99.90;;;;;;5014362;28;20366;-75
2022/02/22 08:04:26;;;;;;;4.80;2.95;;;3.50;99.90;;;;;;5015589;28;20488;-78
2022/02/22 08:06:56;;;;;;;4.05;3.00;;;3.80;99.90;;;;;;5016246;28;20021;-77
2022/02/22 08:09:23;;;;;;;4.05;2.58;;;4.30;99.90;;;;;;5015451;28;20106;-77
2022/02/22 08:11:49;;;;;;;6.33;3.73;;;4.60;99.90;;;;;;5015544;28;20033;-77
2022/02/22 08:14:15;;;;;;;4.45;2.20;;;4.90;99.90;;;;;;5003837;28;20026;-77
2022/02/22 08:16:42;;;;;;;6.30;2.90;;;5.00;99.90;;;;;;4999377;28;20026;-76
2022/02/22 08:19:08;;;;;;;4.57;2.97;;;5.00;99.90;;;;;;5017173;28;20045;-77
2022/02/22 08:21:34;;;;;;;7.07;4.32;;;5.00;99.90;;;;;;5016758;28;20058;-77
2022/02/22 08:24:00;;;;;;;4.50;3.03;;;5.00;99.90;;;;;;5015280;28;20061;-79
2022/02/22 08:26:26;;;;;;;4.40;2.95;;;5.00;99.90;;;;;;5014253;28;20049;-76
2022/02/22 08:28:52;;;;;;;7.75;4.47;;;4.90;99.90;;;;;;5014740;28;20076;-77
2022/02/22 08:31:18;;;;;;;12.63;7.18;;;4.90;99.90;;;;;;5013338;28;20431;-79
2022/02/22 08:33:44;;;;;;;4.22;2.75;;;5.10;99.90;;;;;;5014875;28;20036;-79
2022/02/22 08:36:11;;;;;;;3.78;2.80;;;6.20;99.90;;;;;;5014129;28;20091;-78
2022/02/22 08:38:37;;;;;;;5.03;3.90;;;7.30;98.10;;;;;;5013423;28;20041;-78
2022/02/22 08:41:03;;;;;;;10.18;5.45;;;7.90;95.80;;;;;;5014655;28;20098;-76
2022/02/22 08:43:29;;;;;;;10.15;4.75;;;8.50;94.80;;;;;;5013841;28;20033;-77
2022/02/22 08:45:55;;;;;;;5.20;3.30;;;9.20;92.90;;;;;;5014461;28;20030;-79
2022/02/22 08:48:21;;;;;;;4.63;2.97;;;9.90;91.60;;;;;;5014870;28;20501;-79
2022/02/22 08:50:46;;;;;;;7.55;2.70;;;10.30;88.00;;;;;;5014703;28;20029;-79
2022/02/22 08:53:14;;;;;;;5.10;2.90;;;10.00;86.30;;;;;;5013533;28;20875;-78
2022/02/22 08:55:40;;;;;;;8.10;4.68;;;10.00;83.70;;;;;;5015974;28;20029;-77
2022/02/22 08:58:06;;;;;;;4.40;2.35;;;10.10;82.60;;;;;;5015373;28;20113;-78
2022/02/22 09:00:31;;;;;;;3.55;2.65;;;10.00;82.40;;;;;;5013543;28;20449;-79
2022/02/22 09:02:58;;;;;;;3.65;2.47;;;9.90;82.10;;;;;;5014337;28;20050;-79
2022/02/22 09:05:25;;;;;;;6.60;3.58;;;9.90;80.60;;;;;;5014242;28;20403;-79
2022/02/22 09:07:52;;;;;;;9.25;5.45;;;9.50;80.30;;;;;;5014648;28;20061;-78
2022/02/22 09:10:19;;;;;;;7.80;5.45;;;9.20;82.70;;;;;;5014325;28;20057;-77
2022/02/22 09:12:45;;;;;;;5.63;3.42;;;8.70;82.20;;;;;;5006673;28;20486;-80
2022/02/22 09:15:12;;;;;;;6.80;4.32;;;7.90;83.50;;;;;;4994505;28;20089;-78
2022/02/22 09:17:39;;;;;;;4.43;2.83;;;7.50;85.90;;;;;;5003586;28;20087;-79
2022/02/22 09:20:08;;;;;;;4.15;1.95;;;7.30;86.70;;;;;;5012257;28;20037;-78
2022/02/22 09:22:37;;;;;;;4.00;2.65;;;7.30;87.40;;;;;;5014256;28;20051;-79
2022/02/22 09:25:04;;;;;;;5.80;2.63;;;7.40;87.60;;;;;;5014584;28;20030;-79
2022/02/22 09:27:33;;;;;;;7.07;3.42;;;8.00;87.80;;;;;;5016979;28;20029;-77
2022/02/22 09:29:59;;;;;;;4.07;2.17;;;9.30;85.30;;;;;;5015849;28;20033;-78
2022/02/22 09:32:25;;;;;;;3.35;2.17;;;9.90;81.60;;;;;;5013538;28;20018;-80
2022/02/22 09:34:52;;;;;;;5.43;2.92;;;10.30;79.90;;;;;;5013064;28;20046;-77
2022/02/22 09:37:18;;;;;;;5.43;2.60;;;11.00;78.50;;;;;;5013840;28;20544;-81
2022/02/22 09:39:44;;;;;;;4.47;2.78;;;10.70;73.90;;;;;;5014305;28;20053;-78
2022/02/22 09:42:10;;;;;;;3.60;2.00;;;10.30;75.60;;;;;;5014874;28;20029;-79
2022/02/22 09:44:40;;;;;;;5.50;2.65;;;10.50;74.50;;;;;;5012872;28;20121;-80
2022/02/22 09:47:07;;;;;;;7.63;2.97;;;11.10;73.50;;;;;;5012700;28;20096;-79
2022/02/22 09:49:34;;;;;;;5.35;2.92;;;10.90;70.50;;;;;;5013555;28;20034;-77
2022/02/22 09:52:00;;;;;;;3.90;1.92;;;11.10;73.20;;;;;;5011171;28;20033;-80
2022/02/22 09:54:27;;;;;;;7.47;2.88;;;11.50;70.20;;;;;;5013621;28;20180;-79
2022/02/22 09:56:54;;;;;;;3.35;1.88;;;12.10;69.50;;;;;;5014208;28;20657;-79
2022/02/22 09:59:24;;;;;;;;;;;12.30;67.50;;;;;;5013992;28;20036;-77
2022/02/22 10:01:54;;;;;;;3.03;1.95;;;11.70;70.10;;;;;;5012518;28;19909;-79
2022/02/22 10:04:21;;;;;;;3.30;2.03;;;11.80;69.00;;;;;;5013341;28;20479;-79
2022/02/22 10:06:47;;;;;;;11.48;2.40;;;11.60;67.00;;;;;;5013405;28;20030;-79
2022/02/22 10:09:13;;;;;;;6.80;3.55;;;11.70;66.60;;;;;;5013279;28;20026;-79
2022/02/22 10:11:49;;;;;;;4.60;2.22;;;11.80;66.60;;;;;;5005511;28;20018;-79
2022/02/22 10:14:23;;;;;;;2.90;2.00;;;11.50;66.50;;;;;;4993538;28;20479;-81
2022/02/22 10:16:49;;;;;;;4.00;2.58;;;11.10;67.70;;;;;;4991942;28;20080;-78
2022/02/22 10:19:16;;;;;;;4.10;2.87;;;11.10;68.40;;;;;;5005244;28;20034;-80
2022/02/22 10:21:46;;;;;;;11.05;6.22;;;11.20;67.80;;;;;;5013223;28;20033;-79
2022/02/22 10:24:15;;;;;;;7.60;4.72;;;10.70;67.40;;;;;;5012135;28;20037;-79
2022/02/22 10:26:41;;;;;;;5.63;3.30;;;11.30;70.30;;;;;;5012752;28;20111;-79
2022/02/22 10:29:21;;;;;;;7.43;2.70;;;12.30;65.90;;;;;;5013267;28;20487;-80
2022/02/22 10:31:47;;;;;;;3.67;1.75;;;12.70;63.70;;;;;;5012906;28;20094;-79
2022/02/22 10:34:14;;;;;;;6.18;2.75;;;11.80;62.00;;;;;;5010592;28;20490;-78
2022/02/22 10:36:49;;;;;;;4.80;3.27;;;10.80;64.80;;;;;;5012619;28;20044;-80
2022/02/22 10:39:19;;;;;;;2.88;2.20;;;10.10;67.10;;;;;;5013104;28;20437;-78
2022/02/22 10:41:46;;;;;;;4.20;2.13;;;9.50;68.20;;;;;;5012819;28;20014;-79
2022/02/22 10:44:23;;;;;;;5.18;2.70;;;9.00;69.80;;;;;;5012664;28;20108;-78
2022/02/22 10:46:49;;;;;;;4.10;2.53;;;8.60;71.30;;;;;;5012877;28;20046;-78
2022/02/22 10:49:18;;;;;;;14.60;7.00;;;8.40;72.40;;;;;;5015360;28;20443;-81
2022/02/22 10:51:51;;;;;;;7.57;4.35;;;8.10;73.70;;;;;;5012644;28;20084;-79
2022/02/22 10:54:22;;;;;;;6.53;4.20;;;7.90;74.70;;;;;;5012467;28;20025;-79
2022/02/22 10:56:49;;;;;;;5.90;3.33;;;7.80;75.50;;;;;;5012294;28;20399;-79
2022/02/22 10:59:16;;;;;;;4.78;2.92;;;7.60;75.80;;;;;;5012280;28;20463;-80
2022/02/22 11:01:42;;;;;;;4.03;2.22;;;7.50;76.30;;;;;;5010241;28;20022;-77
2022/02/22 11:04:09;;;;;;;3.10;1.85;;;7.40;77.00;;;;;;5014219;28;20505;-77
2022/02/22 11:06:35;;;;;;;4.40;2.10;;;7.40;76.80;;;;;;5013648;28;20102;-80
2022/02/22 11:09:01;;;;;;;7.35;3.67;;;7.20;76.80;;;;;;5012650;28;20025;-78
2022/02/22 11:11:36;;;;;;;3.67;1.55;;;7.20;77.20;;;;;;4995828;28;20361;-80
2022/02/22 11:14:05;;;;;;;6.22;3.78;;;7.10;77.10;;;;;;4993438;28;20026;-81
2022/02/22 11:16:46;;;;;;;4.70;2.78;;;7.20;77.60;;;;;;4993120;28;20434;-78
2022/02/22 11:19:20;;;;;;;2.85;2.20;;;7.40;77.50;;;;;;5011212;28;20084;-79
2022/02/22 11:21:49;;;;;;;4.15;2.33;;;7.60;77.40;;;;;;5013909;28;20030;-79
2022/02/22 11:24:18;;;;;;;5.28;3.53;;;7.70;77.40;;;;;;5012946;28;20046;-80
2022/02/22 11:26:59;;;;;;;2.38;1.83;;;7.70;77.10;;;;;;5011924;28;20033;-79
2022/02/22 11:29:28;;;;;;;6.70;2.70;;;7.60;76.40;;;;;;5012065;28;20022;-77
2022/02/22 11:32:11;;;;;;;5.05;3.13;;;7.30;77.10;;;;;;5010767;28;20029;-79
2022/02/22 11:34:40;;;;;;;3.60;2.35;;;7.00;78.20;;;;;;5011056;28;20125;-78
2022/02/22 11:37:14;;;;;;;5.80;2.47;;;6.90;78.10;;;;;;5013220;28;20026;-79
2022/02/22 11:39:51;;;;;;;5.57;2.45;;;6.70;78.80;;;;;;5012660;28;20557;-79
2022/02/22 11:42:17;;;;;;;;;;;6.60;78.90;;;;;;5012763;28;20032;-78
2022/02/22 11:44:43;;;;;;;6.47;2.30;;;6.70;79.20;;;;;;5012466;28;19913;-80
2022/02/22 11:47:15;;;;;;;5.00;2.72;;;6.80;78.80;;;;;;5012276;28;20030;-77
2022/02/22 11:49:48;;;;;;;3.40;1.70;;;6.90;79.30;;;;;;5011088;28;20494;-78
2022/02/22 11:52:14;;;;;;;5.70;2.53;;;7.10;78.30;;;;;;5010744;28;20033;-78
2022/02/22 11:54:41;;;;;;;5.10;2.33;;;7.10;77.80;;;;;;5011906;28;20491;-78
2022/02/22 11:57:08;;;;;;;6.93;2.67;;;7.00;76.80;;;;;;5011624;28;20061;-76
2022/02/22 11:59:53;;;;;;;4.05;2.50;;;6.90;76.70;;;;;;5010501;28;20040;-78
2022/02/22 12:02:30;;;;;;;6.32;3.85;;;6.80;77.20;;;;;;5010549;28;20091;-78
2022/02/22 12:04:58;;;;;;;4.28;2.05;;;6.80;77.70;;;;;;5011958;28;20022;-78
2022/02/22 12:07:34;;;;;;;4.22;1.70;;;6.70;77.40;;;;;;5010616;28;20805;-79
2022/02/22 12:10:06;;;;;;;2.97;2.20;;;6.70;77.30;;;;;;5011711;28;20026;-78
2022/02/22 12:12:33;;;;;;;5.65;2.40;;;6.70;77.30;;;;;;5013585;28;20037;-79
2022/02/22 12:14:59;;;;;;;5.30;2.67;;;6.70;77.60;;;;;;5015131;28;20022;-78
2022/02/22 12:17:26;;;;;;;3.53;2.65;;;6.80;77.70;;;;;;5013684;28;20486;-78
2022/02/22 12:19:54;;;;;;;3.60;2.40;;;6.70;77.50;;;;;;5015260;28;20479;-79
2022/02/22 12:22:25;;;;;;;4.25;2.30;;;6.80;77.70;;;;;;5030423;28;20506;-79
2022/02/22 12:25:02;;;;;;;4.22;2.20;;;6.80;77.50;;;;;;5014387;28;20048;-79
2022/02/22 12:27:33;;;;;;;7.38;2.17;;;6.80;76.80;;;;;;5015244;28;20095;-78
2022/02/22 12:30:00;;;;;;;4.80;2.80;;;6.70;77.30;;;;;;5015105;28;20113;-79
2022/02/22 12:32:32;;;;;;;4.47;2.37;;;6.70;77.50;;;;;;5014834;28;20022;-78
2022/02/22 12:35:01;;;;;;;6.25;2.67;;;6.70;77.20;;;;;;5014918;28;20050;-80
2022/02/22 12:37:29;;;;;;;3.83;2.53;;;6.60;77.90;;;;;;5014827;28;20037;-78
2022/02/22 12:39:55;;;;;;;6.20;2.33;;;6.50;78.40;;;;;;5014011;28;20380;-78
2022/02/22 12:42:21;;;;;;;7.35;3.17;;;6.50;78.70;;;;;;5014667;28;20093;-78
2022/02/22 12:44:50;;;;;;;6.97;4.50;;;6.50;78.60;;;;;;5014649;28;20032;-77
2022/02/22 12:47:17;;;;;;;4.63;2.47;;;6.40;78.80;;;;;;5013278;28;20026;-80
2022/02/22 12:49:44;;;;;;;3.72;2.75;;;6.40;78.90;;;;;;5013286;28;20038;-78
2022/02/22 12:52:15;;;;;;;4.85;2.72;;;6.30;79.50;;;;;;5014724;28;20407;-78
2022/02/22 12:54:41;;;;;;;6.35;3.42;;;6.30;79.90;;;;;;5014728;28;20029;-78